Snel-info
Kleurcode:
Rood
Er mag NIET gevlogen worden.
Laatste update: 14/08/2018
Kleurcode informatie

Grasmaaien:

Geen maaibeurten gepland.

Volgende vliegdagen:

  • do 1 november : Allerheiligen
  • vr 2 november : Allerzielen
  • wo 15 november : Dag vd Dynastie
Alle extra vliegdagen

Weersituatie op PMF:

F3M_5-7-2009_MarcVanOpstal_35.jpg

Huidige weersituatie

Huidig weerbeeld in Kleine Brogel, Belgium
Huidige wind in Kleine Brogel, Belgium

Dit is het bericht voor Kleine Brogel, Belgium en werd 22 minuten geleden gemaakt.
De wind waaide met een snelheid van 1.0 meter per seconde (3.7 km/h) uit verschillende richtingen..
De temperatuur was 15 °C. De atmosferische druk was 1018 hPa. De relative luchtvochtigheid was 100.0%.
Het was licht bewolkt op een hoogte van 427 meter, half bewolkt op een hoogte van 610 meter, en zwaar bewolkt op een hoogte van 823 meter. Het algemene zicht was meer dan 10 kilometer.

De onbewerkte METAR gegevens waarop dit bericht is gebaseerd zijn:
EBBL 170655Z VRB02KT 9999 FEW014 SCT020 BKN027 15/15 Q1018 WHT WHT BECMG BLU


Opmerking:
De wind blijkt op PMF meestal iets krachtiger te waaien dan op Kleine Brogel. De windrichting klopt dan weer wel.




KMI

De weersvoorspellingen van het KMI vind je via deze link.


Buienradar

Op www.buienradar.nl kun je zelf zien waar het nu en de komende uren regent.